sensor_id;sensor_type;location;lat;lon;timestamp;pressure;altitude;pressure_sealevel;temperature;humidity
16100;BME280;8154;50.830;12.082;2023-03-19T04:22:42;99153.59;;;24.31;31.79
16100;BME280;8154;50.830;12.082;2023-03-19T04:25:08;99154.22;;;24.33;31.78
16100;BME280;8154;50.830;12.082;2023-03-19T04:27:35;99155.63;;;24.36;31.97
16100;BME280;8154;50.830;12.082;2023-03-19T04:30:01;99159.56;;;24.40;31.76
16100;BME280;8154;50.830;12.082;2023-03-19T04:32:27;99159.94;;;24.43;31.88
16100;BME280;8154;50.830;12.082;2023-03-19T04:34:53;99168.38;;;24.33;31.96
16100;BME280;8154;50.830;12.082;2023-03-19T04:37:19;99165.09;;;24.32;31.78
16100;BME280;8154;50.830;12.082;2023-03-19T04:39:45;99172.72;;;24.28;31.85
16100;BME280;8154;50.830;12.082;2023-03-19T04:42:11;99164.50;;;24.23;32.07
16100;BME280;8154;50.830;12.082;2023-03-19T04:44:38;99169.63;;;24.24;31.78
16100;BME280;8154;50.830;12.082;2023-03-19T04:47:05;99168.41;;;24.27;31.67
16100;BME280;8154;50.830;12.082;2023-03-19T04:49:31;99173.91;;;24.45;31.80
16100;BME280;8154;50.830;12.082;2023-03-19T04:51:57;99179.66;;;24.49;31.40
16100;BME280;8154;50.830;12.082;2023-03-19T04:54:24;99172.69;;;24.35;31.98
16100;BME280;8154;50.830;12.082;2023-03-19T04:56:50;99171.03;;;24.33;31.75
16100;BME280;8154;50.830;12.082;2023-03-19T04:59:17;99173.72;;;24.33;31.78
16100;BME280;8154;50.830;12.082;2023-03-19T05:01:44;99172.50;;;24.29;31.80
16100;BME280;8154;50.830;12.082;2023-03-19T05:04:09;99177.00;;;24.42;31.96
16100;BME280;8154;50.830;12.082;2023-03-19T05:06:36;99183.19;;;24.43;31.61
16100;BME280;8154;50.830;12.082;2023-03-19T05:09:03;99183.19;;;24.36;31.63
16100;BME280;8154;50.830;12.082;2023-03-19T05:11:30;99184.81;;;24.30;31.77
16100;BME280;8154;50.830;12.082;2023-03-19T05:13:56;99182.19;;;24.24;32.03
16100;BME280;8154;50.830;12.082;2023-03-19T05:16:22;99187.50;;;24.24;31.88
16100;BME280;8154;50.830;12.082;2023-03-19T05:18:48;99178.88;;;24.22;32.24
16100;BME280;8154;50.830;12.082;2023-03-19T05:21:14;99182.56;;;24.21;31.92
16100;BME280;8154;50.830;12.082;2023-03-19T05:23:41;99188.31;;;24.38;31.86
16100;BME280;8154;50.830;12.082;2023-03-19T05:26:07;99191.41;;;24.41;31.79
16100;BME280;8154;50.830;12.082;2023-03-19T05:28:34;99193.44;;;24.39;31.93
16100;BME280;8154;50.830;12.082;2023-03-19T07:33:27;99247.88;;;24.84;31.29
16100;BME280;8154;50.830;12.082;2023-03-19T07:35:54;99242.94;;;24.87;31.32
16100;BME280;8154;50.830;12.082;2023-03-19T07:38:20;99250.13;;;24.87;31.38
16100;BME280;8154;50.830;12.082;2023-03-19T07:40:46;99251.53;;;24.89;31.33
16100;BME280;8154;50.830;12.082;2023-03-19T07:43:12;99247.44;;;24.93;31.06
16100;BME280;8154;50.830;12.082;2023-03-19T07:45:38;99244.53;;;25.01;30.81
16100;BME280;8154;50.830;12.082;2023-03-19T07:48:04;99248.00;;;25.02;31.24
16100;BME280;8154;50.830;12.082;2023-03-19T07:50:31;99252.94;;;25.05;31.17
16100;BME280;8154;50.830;12.082;2023-03-19T07:52:57;99241.59;;;25.09;30.97
16100;BME280;8154;50.830;12.082;2023-03-19T07:55:24;99246.13;;;25.15;30.90
16100;BME280;8154;50.830;12.082;2023-03-19T07:57:50;99251.50;;;25.15;31.01
16100;BME280;8154;50.830;12.082;2023-03-19T08:00:17;99253.13;;;25.16;31.09
16100;BME280;8154;50.830;12.082;2023-03-19T08:02:43;99242.63;;;25.21;30.79
16100;BME280;8154;50.830;12.082;2023-03-19T08:05:10;99247.72;;;25.29;30.76
16100;BME280;8154;50.830;12.082;2023-03-19T08:07:37;99254.31;;;25.33;30.88
16100;BME280;8154;50.830;12.082;2023-03-19T08:10:04;99244.88;;;25.24;30.77
16100;BME280;8154;50.830;12.082;2023-03-19T08:12:30;99254.53;;;25.25;30.93
16100;BME280;8154;50.830;12.082;2023-03-19T08:14:57;99245.25;;;25.28;31.00
16100;BME280;8154;50.830;12.082;2023-03-19T08:17:23;99252.28;;;25.22;30.72
16100;BME280;8154;50.830;12.082;2023-03-19T08:19:49;99250.84;;;25.20;30.79
16100;BME280;8154;50.830;12.082;2023-03-19T08:22:16;99257.84;;;25.14;31.18
16100;BME280;8154;50.830;12.082;2023-03-19T08:24:43;99251.28;;;25.10;31.10
16100;BME280;8154;50.830;12.082;2023-03-19T08:27:09;99254.38;;;25.14;31.11
16100;BME280;8154;50.830;12.082;2023-03-19T08:29:35;99243.25;;;25.17;31.02
16100;BME280;8154;50.830;12.082;2023-03-19T08:32:01;99256.41;;;25.18;30.82
16100;BME280;8154;50.830;12.082;2023-03-19T08:34:28;99253.75;;;25.18;30.76
16100;BME280;8154;50.830;12.082;2023-03-19T08:36:54;99258.03;;;25.19;30.81
16100;BME280;8154;50.830;12.082;2023-03-19T08:39:20;99262.59;;;25.12;30.89
16100;BME280;8154;50.830;12.082;2023-03-19T08:41:46;99257.06;;;25.07;30.95
16100;BME280;8154;50.830;12.082;2023-03-19T08:44:12;99255.59;;;25.11;31.17
16100;BME280;8154;50.830;12.082;2023-03-19T08:46:38;99259.09;;;25.12;31.19
16100;BME280;8154;50.830;12.082;2023-03-19T08:49:05;99264.88;;;25.02;31.11
16100;BME280;8154;50.830;12.082;2023-03-19T08:51:31;99260.19;;;24.98;31.34
16100;BME280;8154;50.830;12.082;2023-03-19T08:53:57;99275.16;;;24.99;31.25
16100;BME280;8154;50.830;12.082;2023-03-19T08:56:24;99259.34;;;24.97;31.15
16100;BME280;8154;50.830;12.082;2023-03-19T08:58:51;99267.56;;;24.96;31.02
16100;BME280;8154;50.830;12.082;2023-03-19T09:01:17;99257.72;;;24.90;31.26
16100;BME280;8154;50.830;12.082;2023-03-19T09:03:43;99271.69;;;24.98;31.04
16100;BME280;8154;50.830;12.082;2023-03-19T09:06:11;99266.16;;;24.93;31.46
16100;BME280;8154;50.830;12.082;2023-03-19T09:08:37;99269.44;;;24.95;31.31
16100;BME280;8154;50.830;12.082;2023-03-19T09:11:04;99269.44;;;24.95;31.34
16100;BME280;8154;50.830;12.082;2023-03-19T09:13:31;99270.03;;;24.97;31.03
16100;BME280;8154;50.830;12.082;2023-03-19T09:15:58;99268.41;;;24.96;31.17
16100;BME280;8154;50.830;12.082;2023-03-19T09:18:24;99274.59;;;24.90;31.32
16100;BME280;8154;50.830;12.082;2023-03-19T09:20:51;99270.88;;;24.85;31.13
16100;BME280;8154;50.830;12.082;2023-03-19T09:23:19;99269.66;;;24.87;31.58
16100;BME280;8154;50.830;12.082;2023-03-19T09:25:45;99268.41;;;24.83;31.30
16100;BME280;8154;50.830;12.082;2023-03-19T09:28:11;99271.31;;;24.82;31.39
16100;BME280;8154;50.830;12.082;2023-03-19T09:30:37;99278.31;;;24.83;31.57
16100;BME280;8154;50.830;12.082;2023-03-19T12:29:29;99369.38;;;24.68;31.54
16100;BME280;8154;50.830;12.082;2023-03-19T12:32:32;99375.13;;;24.65;31.57
16100;BME280;8154;50.830;12.082;2023-03-19T12:34:59;99376.56;;;24.61;31.95
16100;BME280;8154;50.830;12.082;2023-03-19T12:37:28;99369.56;;;24.60;31.90
16100;BME280;8154;50.830;12.082;2023-03-19T12:42:38;99365.66;;;24.56;31.66
16100;BME280;8154;50.830;12.082;2023-03-19T12:45:30;99369.75;;;24.52;32.07
16100;BME280;8154;50.830;12.082;2023-03-19T12:48:03;99368.31;;;24.50;32.06
16100;BME280;8154;50.830;12.082;2023-03-19T12:50:35;99363.81;;;24.50;31.81
16100;BME280;8154;50.830;12.082;2023-03-19T12:53:06;99368.75;;;24.53;31.92
16100;BME280;8154;50.830;12.082;2023-03-19T12:55:40;99361.72;;;24.52;31.69
16100;BME280;8154;50.830;12.082;2023-03-19T12:58:17;99366.69;;;24.49;31.84
16100;BME280;8154;50.830;12.082;2023-03-19T13:00:53;99365.03;;;24.41;32.06
16100;BME280;8154;50.830;12.082;2023-03-19T13:03:53;99361.13;;;24.50;32.02
16100;BME280;8154;50.830;12.082;2023-03-19T13:06:30;99353.13;;;24.50;31.79
16100;BME280;8154;50.830;12.082;2023-03-19T13:12:05;99357.22;;;24.53;31.98
16100;BME280;8154;50.830;12.082;2023-03-19T13:17:45;99348.56;;;24.51;31.83
16100;BME280;8154;50.830;12.082;2023-03-19T13:23:27;99351.47;;;24.43;31.82
16100;BME280;8154;50.830;12.082;2023-03-19T13:25:56;99347.75;;;24.37;32.14
16100;BME280;8154;50.830;12.082;2023-03-19T13:28:32;99337.91;;;24.38;31.82
16100;BME280;8154;50.830;12.082;2023-03-19T13:31:20;99344.06;;;24.45;31.82
16100;BME280;8154;50.830;12.082;2023-03-19T13:34:03;99335.84;;;24.46;32.01
16100;BME280;8154;50.830;12.082;2023-03-19T13:36:35;99330.50;;;24.46;32.01
16100;BME280;8154;50.830;12.082;2023-03-19T13:39:03;99331.31;;;24.40;32.10
16100;BME280;8154;50.830;12.082;2023-03-19T13:57:56;99315.72;;;24.50;31.87
16100;BME280;8154;50.830;12.082;2023-03-19T14:03:25;99319.00;;;24.39;31.68
16100;BME280;8154;50.830;12.082;2023-03-19T14:05:55;99331.31;;;24.33;31.89
16100;BME280;8154;50.830;12.082;2023-03-19T14:08:25;99325.56;;;24.37;32.10
16100;BME280;8154;50.830;12.082;2023-03-19T14:10:55;99321.88;;;24.44;31.82
16100;BME280;8154;50.830;12.082;2023-03-19T14:13:32;99312.41;;;24.48;31.63
16100;BME280;8154;50.830;12.082;2023-03-19T15:17:26;99300.91;;;24.28;32.21
16100;BME280;8154;50.830;12.082;2023-03-19T15:19:54;99287.94;;;24.38;31.91
16100;BME280;8154;50.830;12.082;2023-03-19T15:22:29;99291.66;;;24.44;32.04
16100;BME280;8154;50.830;12.082;2023-03-19T15:25:12;99292.69;;;24.49;31.54
16100;BME280;8154;50.830;12.082;2023-03-19T15:27:39;99293.91;;;24.47;31.85
16100;BME280;8154;50.830;12.082;2023-03-19T15:30:25;99291.66;;;24.37;31.99
16100;BME280;8154;50.830;12.082;2023-03-19T15:32:54;99288.78;;;24.32;31.96
16100;BME280;8154;50.830;12.082;2023-03-19T15:35:24;99282.00;;;24.36;31.74
16100;BME280;8154;50.830;12.082;2023-03-19T15:37:55;99288.78;;;24.39;31.92
16100;BME280;8154;50.830;12.082;2023-03-19T15:40:27;99286.09;;;24.39;32.05
16100;BME280;8154;50.830;12.082;2023-03-19T15:42:57;99286.31;;;24.37;31.79
16100;BME280;8154;50.830;12.082;2023-03-19T15:45:25;99285.28;;;24.38;31.87
16100;BME280;8154;50.830;12.082;2023-03-19T15:50:36;99288.97;;;24.37;31.86
16100;BME280;8154;50.830;12.082;2023-03-19T15:53:07;99285.69;;;24.42;32.03
16100;BME280;8154;50.830;12.082;2023-03-19T15:55:35;99285.31;;;24.32;31.92
16100;BME280;8154;50.830;12.082;2023-03-19T15:58:09;99284.25;;;24.33;32.05
16100;BME280;8154;50.830;12.082;2023-03-19T16:00:40;99290.63;;;24.38;32.19
16100;BME280;8154;50.830;12.082;2023-03-19T16:03:11;99285.69;;;24.42;31.70
16100;BME280;8154;50.830;12.082;2023-03-19T16:05:41;99291.03;;;24.48;31.93
16100;BME280;8154;50.830;12.082;2023-03-19T16:08:24;99281.19;;;24.42;32.10
16100;BME280;8154;50.830;12.082;2023-03-19T16:10:50;99284.06;;;24.34;32.11
16100;BME280;8154;50.830;12.082;2023-03-19T19:17:17;99417.00;;;24.39;31.95
16100;BME280;8154;50.830;12.082;2023-03-19T19:19:44;99422.31;;;24.32;31.72
16100;BME280;8154;50.830;12.082;2023-03-19T19:22:15;99420.88;;;24.23;32.25
16100;BME280;8154;50.830;12.082;2023-03-19T19:24:43;99423.34;;;24.31;31.96
16100;BME280;8154;50.830;12.082;2023-03-19T19:27:18;99425.00;;;24.32;31.94
16100;BME280;8154;50.830;12.082;2023-03-19T19:29:45;99430.34;;;24.32;31.93
16100;BME280;8154;50.830;12.082;2023-03-19T19:32:25;99437.34;;;24.33;31.87
16100;BME280;8154;50.830;12.082;2023-03-19T19:34:52;99441.22;;;24.30;32.06
16100;BME280;8154;50.830;12.082;2023-03-19T19:37:19;99433.22;;;24.24;31.81
16100;BME280;8154;50.830;12.082;2023-03-19T19:39:48;99444.53;;;24.33;32.06
16100;BME280;8154;50.830;12.082;2023-03-19T19:42:16;99440.81;;;24.33;31.96
16100;BME280;8154;50.830;12.082;2023-03-19T19:44:51;99444.31;;;24.34;32.02
16100;BME280;8154;50.830;12.082;2023-03-19T19:47:18;99436.53;;;24.39;31.71
16100;BME280;8154;50.830;12.082;2023-03-19T19:49:45;99438.97;;;24.34;31.86
16100;BME280;8154;50.830;12.082;2023-03-19T19:52:12;99447.41;;;24.31;31.77
16100;BME280;8154;50.830;12.082;2023-03-19T19:54:39;99447.22;;;24.39;31.65
16100;BME280;8154;50.830;12.082;2023-03-19T19:57:17;99450.53;;;24.41;31.68
16100;BME280;8154;50.830;12.082;2023-03-19T19:59:46;99450.91;;;24.45;31.77
16100;BME280;8154;50.830;12.082;2023-03-19T20:02:23;99452.16;;;24.42;31.79
16100;BME280;8154;50.830;12.082;2023-03-19T20:04:51;99444.34;;;24.41;31.55
16100;BME280;8154;50.830;12.082;2023-03-19T20:07:28;99449.47;;;24.42;31.88
16100;BME280;8154;50.830;12.082;2023-03-19T20:09:55;99448.06;;;24.40;31.93
16100;BME280;8154;50.830;12.082;2023-03-19T20:12:25;99447.41;;;24.38;31.90
16100;BME280;8154;50.830;12.082;2023-03-19T20:14:53;99441.66;;;24.41;31.73
16100;BME280;8154;50.830;12.082;2023-03-19T20:17:19;99450.53;;;24.41;31.68
16100;BME280;8154;50.830;12.082;2023-03-19T20:19:48;99448.81;;;24.33;32.00
16100;BME280;8154;50.830;12.082;2023-03-19T20:22:15;99453.78;;;24.30;31.87
16100;BME280;8154;50.830;12.082;2023-03-19T20:24:41;99450.91;;;24.38;31.96
16100;BME280;8154;50.830;12.082;2023-03-19T20:27:17;99450.09;;;24.38;32.02
16100;BME280;8154;50.830;12.082;2023-03-19T20:29:45;99444.53;;;24.39;31.85
16100;BME280;8154;50.830;12.082;2023-03-19T20:32:33;99444.34;;;24.41;32.00
16100;BME280;8154;50.830;12.082;2023-03-19T20:35:01;99444.94;;;24.36;31.92
16100;BME280;8154;50.830;12.082;2023-03-19T20:37:27;99442.47;;;24.35;31.96
16100;BME280;8154;50.830;12.082;2023-03-19T20:39:53;99449.06;;;24.39;31.99
16100;BME280;8154;50.830;12.082;2023-03-19T20:42:21;99440.41;;;24.37;31.99
16100;BME280;8154;50.830;12.082;2023-03-19T20:44:55;99449.06;;;24.39;31.96
16100;BME280;8154;50.830;12.082;2023-03-19T20:47:22;99446.38;;;24.39;31.95
16100;BME280;8154;50.830;12.082;2023-03-19T20:49:50;99449.47;;;24.42;31.86
16100;BME280;8154;50.830;12.082;2023-03-19T20:52:18;99452.16;;;24.42;31.94
16100;BME280;8154;50.830;12.082;2023-03-19T20:54:44;99454.59;;;24.37;31.75
16100;BME280;8154;50.830;12.082;2023-03-19T20:57:15;99453.75;;;24.37;31.82
16100;BME280;8154;50.830;12.082;2023-03-19T20:59:44;99457.06;;;24.39;31.67
16100;BME280;8154;50.830;12.082;2023-03-19T21:02:17;99450.69;;;24.33;32.11
16100;BME280;8154;50.830;12.082;2023-03-19T21:04:44;99450.09;;;24.38;31.86
16100;BME280;8154;50.830;12.082;2023-03-19T21:09:55;99454.19;;;24.40;31.78
16100;BME280;8154;50.830;12.082;2023-03-19T21:12:28;99443.72;;;24.39;31.62
16100;BME280;8154;50.830;12.082;2023-03-19T21:14:56;99444.78;;;24.44;31.79
16100;BME280;8154;50.830;12.082;2023-03-19T21:17:22;99450.13;;;24.44;31.56
16100;BME280;8154;50.830;12.082;2023-03-19T21:19:48;99450.91;;;24.38;32.18
16100;BME280;8154;50.830;12.082;2023-03-19T21:22:23;99459.72;;;24.32;31.87
16100;BME280;8154;50.830;12.082;2023-03-19T21:25:00;99461.97;;;24.35;32.09
16100;BME280;8154;50.830;12.082;2023-03-19T21:27:29;99458.75;;;24.40;31.64
16100;BME280;8154;50.830;12.082;2023-03-19T21:29:56;99457.91;;;24.39;31.81
16100;BME280;8154;50.830;12.082;2023-03-19T21:32:22;99461.00;;;24.43;31.59
16100;BME280;8154;50.830;12.082;2023-03-19T21:34:48;99454.00;;;24.42;31.94
16100;BME280;8154;50.830;12.082;2023-03-19T21:37:18;99454.19;;;24.40;31.99
16100;BME280;8154;50.830;12.082;2023-03-19T21:39:44;99456.25;;;24.38;31.77
16100;BME280;8154;50.830;12.082;2023-03-19T21:42:15;99458.31;;;24.36;32.02
16100;BME280;8154;50.830;12.082;2023-03-19T21:44:46;99456.25;;;24.38;31.88
16100;BME280;8154;50.830;12.082;2023-03-19T21:47:16;99460.38;;;24.41;32.06
16100;BME280;8154;50.830;12.082;2023-03-19T21:49:43;99459.53;;;24.40;31.59
16100;BME280;8154;50.830;12.082;2023-03-19T21:52:14;99458.50;;;24.35;31.94
16100;BME280;8154;50.830;12.082;2023-03-19T21:54:42;99460.56;;;24.39;31.73
16100;BME280;8154;50.830;12.082;2023-03-19T21:57:11;99464.44;;;24.37;31.86
16100;BME280;8154;50.830;12.082;2023-03-19T21:59:39;99462.00;;;24.42;31.84
16100;BME280;8154;50.830;12.082;2023-03-19T22:04:47;99465.09;;;24.45;32.02
16100;BME280;8154;50.830;12.082;2023-03-19T22:07:13;99472.94;;;24.47;31.59
16100;BME280;8154;50.830;12.082;2023-03-19T22:09:39;99477.25;;;24.41;31.66
16100;BME280;8154;50.830;12.082;2023-03-19T22:12:17;99480.72;;;24.42;31.92
16100;BME280;8154;50.830;12.082;2023-03-19T22:14:47;99483.38;;;24.42;32.03
16100;BME280;8154;50.830;12.082;2023-03-19T22:17:14;99485.63;;;24.38;32.13
16100;BME280;8154;50.830;12.082;2023-03-19T22:19:40;99491.59;;;24.40;31.89
16100;BME280;8154;50.830;12.082;2023-03-19T22:22:08;99486.66;;;24.37;31.70
16100;BME280;8154;50.830;12.082;2023-03-19T22:24:36;99493.06;;;24.43;31.68
16100;BME280;8154;50.830;12.082;2023-03-19T22:27:04;99487.53;;;24.44;31.63
16100;BME280;8154;50.830;12.082;2023-03-19T22:29:31;99493.06;;;24.43;31.74
16100;BME280;8154;50.830;12.082;2023-03-19T22:31:58;99493.06;;;24.43;31.61
16100;BME280;8154;50.830;12.082;2023-03-19T22:34:26;99488.13;;;24.40;31.77
16100;BME280;8154;50.830;12.082;2023-03-19T22:36:55;99486.66;;;24.37;32.16
16100;BME280;8154;50.830;12.082;2023-03-19T22:39:21;99486.66;;;24.37;32.01
16100;BME280;8154;50.830;12.082;2023-03-19T22:41:48;99482.16;;;24.38;31.71
16100;BME280;8154;50.830;12.082;2023-03-19T22:44:34;99481.50;;;24.36;32.03
16100;BME280;8154;50.830;12.082;2023-03-19T22:47:00;99493.84;;;24.30;32.06
16100;BME280;8154;50.830;12.082;2023-03-19T22:49:27;99491.38;;;24.35;31.88
16100;BME280;8154;50.830;12.082;2023-03-19T22:51:54;99488.94;;;24.40;31.70
16100;BME280;8154;50.830;12.082;2023-03-19T22:54:21;99489.34;;;24.44;31.87
16100;BME280;8154;50.830;12.082;2023-03-19T22:56:47;99480.50;;;24.43;31.82
16100;BME280;8154;50.830;12.082;2023-03-19T22:59:14;99487.72;;;24.43;31.94
16100;BME280;8154;50.830;12.082;2023-03-19T23:01:45;99485.81;;;24.37;32.03
16100;BME280;8154;50.830;12.082;2023-03-19T23:04:21;99489.97;;;24.39;31.83
16100;BME280;8154;50.830;12.082;2023-03-19T23:06:48;99484.63;;;24.39;31.74
16100;BME280;8154;50.830;12.082;2023-03-19T23:09:19;99486.88;;;24.42;32.04
16100;BME280;8154;50.830;12.082;2023-03-19T23:11:46;99485.06;;;24.43;31.84
16100;BME280;8154;50.830;12.082;2023-03-19T23:14:16;99482.56;;;24.41;31.73
16100;BME280;8154;50.830;12.082;2023-03-19T23:16:44;99481.53;;;24.42;32.13
16100;BME280;8154;50.830;12.082;2023-03-19T23:19:20;99486.25;;;24.40;31.98
16100;BME280;8154;50.830;12.082;2023-03-19T23:21:47;99479.31;;;24.46;31.91
16100;BME280;8154;50.830;12.082;2023-03-19T23:24:16;99479.50;;;24.44;31.81
16100;BME280;8154;50.830;12.082;2023-03-19T23:26:45;99487.09;;;24.41;32.03
16100;BME280;8154;50.830;12.082;2023-03-19T23:29:23;99486.69;;;24.44;31.65
16100;BME280;8154;50.830;12.082;2023-03-19T23:31:51;99484.66;;;24.46;31.93
16100;BME280;8154;50.830;12.082;2023-03-19T23:34:17;99489.38;;;24.50;31.90
16100;BME280;8154;50.830;12.082;2023-03-19T23:36:44;99487.09;;;24.54;31.68
16100;BME280;8154;50.830;12.082;2023-03-19T23:39:10;99485.69;;;24.51;31.61
16100;BME280;8154;50.830;12.082;2023-03-19T23:41:44;99491.63;;;24.47;31.83
16100;BME280;8154;50.830;12.082;2023-03-19T23:44:14;99498.00;;;24.46;31.72
16100;BME280;8154;50.830;12.082;2023-03-19T23:46:42;99495.72;;;24.43;31.77
16100;BME280;8154;50.830;12.082;2023-03-19T23:49:13;99490.97;;;24.38;31.82
16100;BME280;8154;50.830;12.082;2023-03-19T23:51:40;99493.63;;;24.38;31.86
16100;BME280;8154;50.830;12.082;2023-03-19T23:56:52;99484.38;;;24.34;32.00
16100;BME280;8154;50.830;12.082;2023-03-19T23:59:18;99481.28;;;24.30;32.23
